createdAt,value
2022-09-05T00:01:55.841Z,37.50
2022-09-05T00:04:47.594Z,37.40
2022-09-05T00:07:36.032Z,37.50
2022-09-05T00:10:37.344Z,37.50
2022-09-05T00:13:22.792Z,37.80
2022-09-05T00:16:21.583Z,37.60
2022-09-05T00:23:17.639Z,37.70
2022-09-05T00:24:35.462Z,37.60
2022-09-05T00:26:03.325Z,37.30
2022-09-05T00:28:44.030Z,37.40
2022-09-05T00:31:54.304Z,37.50
2022-09-05T00:34:47.806Z,37.40
2022-09-05T00:37:34.888Z,37.50
2022-09-05T00:40:17.924Z,37.60
2022-09-05T00:42:53.969Z,37.30
2022-09-05T00:45:48.271Z,37.20
2022-09-05T00:48:51.464Z,37.40
2022-09-05T00:51:46.971Z,37.60
2022-09-05T00:54:51.749Z,37.70
2022-09-05T00:57:18.494Z,37.80
2022-09-05T01:00:06.107Z,37.60
2022-09-05T01:03:10.125Z,38.00
2022-09-05T01:06:15.306Z,38.20
2022-09-05T01:09:32.648Z,38.20
2022-09-05T01:12:13.885Z,38.50
2022-09-05T01:15:22.420Z,38.50
2022-09-05T01:18:00.579Z,39.00
2022-09-05T01:20:49.654Z,38.90
2022-09-05T01:23:28.607Z,39.10
2022-09-05T01:26:20.770Z,39.10
2022-09-05T01:29:16.373Z,39.10
2022-09-05T01:32:04.587Z,39.40
2022-09-05T01:34:54.455Z,39.50
2022-09-05T01:38:06.753Z,39.40
2022-09-05T01:40:43.578Z,39.20
2022-09-05T01:43:27.984Z,39.40
2022-09-05T01:46:09.005Z,39.70
2022-09-05T01:48:53.612Z,40.10
2022-09-05T01:51:28.978Z,40.10
2022-09-05T01:54:25.730Z,40.10
2022-09-05T01:57:13.588Z,40.60
2022-09-05T01:59:58.182Z,40.50
2022-09-05T02:02:50.216Z,40.70
2022-09-05T02:05:48.315Z,41.00
2022-09-05T02:08:15.973Z,41.10
2022-09-05T02:10:47.548Z,41.40
2022-09-05T02:13:17.323Z,41.40
2022-09-05T02:15:59.806Z,41.40
2022-09-05T02:18:54.251Z,41.80
2022-09-05T02:21:33.449Z,42.50
2022-09-05T02:24:28.039Z,41.80
2022-09-05T02:27:03.966Z,41.90
2022-09-05T02:29:55.760Z,42.20
2022-09-05T02:32:45.932Z,41.80
2022-09-05T02:35:30.247Z,42.20
2022-09-05T02:40:26.255Z,42.10
2022-09-05T02:45:09.514Z,42.20
2022-09-05T02:45:17.492Z,42.20
2022-09-05T02:47:01.173Z,42.20
2022-09-05T02:52:03.847Z,42.30
2022-09-05T02:57:25.344Z,42.50
2022-09-05T02:57:36.374Z,42.50
2022-09-05T02:58:24.141Z,42.40
2022-09-05T03:01:21.098Z,42.40
2022-09-05T03:04:18.212Z,42.60
2022-09-05T03:07:01.320Z,42.80
2022-09-05T03:10:05.335Z,42.80
2022-09-05T03:13:02.616Z,42.70
2022-09-05T03:15:44.267Z,42.70
2022-09-05T03:18:26.089Z,43.40
2022-09-05T03:21:24.821Z,42.80
2022-09-05T03:24:22.948Z,43.10
2022-09-05T03:27:29.370Z,43.10
2022-09-05T03:30:06.301Z,43.20
2022-09-05T03:33:05.831Z,43.30
2022-09-05T03:35:54.363Z,43.40
2022-09-05T03:39:04.469Z,43.20
2022-09-05T03:42:14.669Z,43.40
2022-09-05T03:45:36.376Z,43.60
2022-09-05T03:48:27.922Z,43.50
2022-09-05T03:56:01.316Z,43.70
2022-09-05T03:57:23.882Z,43.80
2022-09-05T03:57:32.236Z,43.80
2022-09-05T04:00:08.627Z,43.70
2022-09-05T04:08:13.499Z,43.90
2022-09-05T04:08:18.450Z,43.90
2022-09-05T04:08:46.158Z,43.90
2022-09-05T04:11:32.146Z,44.20
2022-09-05T04:14:21.046Z,44.30
2022-09-05T04:16:56.256Z,44.30
2022-09-05T04:19:41.510Z,44.50
2022-09-05T04:22:32.108Z,44.40
2022-09-05T04:25:42.861Z,44.40
2022-09-05T04:28:31.613Z,44.40
2022-09-05T04:31:03.009Z,44.40
2022-09-05T04:33:43.229Z,44.40
2022-09-05T04:36:20.988Z,44.40
2022-09-05T04:39:07.037Z,44.50
2022-09-05T04:41:40.210Z,44.50
2022-09-05T04:44:42.907Z,44.40
2022-09-05T04:47:27.568Z,44.30
2022-09-05T04:50:06.783Z,44.30
2022-09-05T04:52:52.224Z,44.30
2022-09-05T04:55:51.874Z,44.30
2022-09-05T04:59:22.318Z,44.70
2022-09-05T05:06:04.051Z,44.00
2022-09-05T05:06:10.664Z,43.90
2022-09-05T05:07:51.801Z,43.70
2022-09-05T05:14:44.459Z,43.50
2022-09-05T05:18:08.473Z,43.30
2022-09-05T05:18:12.507Z,43.40
2022-09-05T05:20:42.644Z,43.00
2022-09-05T05:23:14.551Z,42.70
2022-09-05T05:25:49.748Z,42.40
2022-09-05T05:28:37.748Z,42.20
2022-09-05T05:31:16.875Z,42.10
2022-09-05T05:33:49.208Z,42.50
2022-09-05T05:36:39.488Z,41.70
2022-09-05T05:39:24.755Z,41.80
2022-09-05T05:42:05.316Z,41.80
2022-09-05T05:44:53.908Z,41.80
2022-09-05T05:47:35.023Z,41.80
2022-09-05T05:50:35.187Z,42.80
2022-09-05T05:53:43.606Z,42.60
2022-09-05T05:56:32.698Z,42.70
2022-09-05T05:59:14.059Z,42.60
2022-09-05T06:02:02.589Z,42.50
2022-09-05T06:04:44.738Z,42.30
2022-09-05T06:08:30.530Z,42.20
2022-09-05T06:14:49.361Z,42.10
2022-09-05T06:14:57.126Z,42.00
2022-09-05T06:17:09.523Z,41.90
2022-09-05T06:22:04.547Z,42.20
2022-09-05T06:23:39.590Z,41.70
2022-09-05T06:26:45.715Z,41.90
2022-09-05T06:29:25.327Z,41.80
2022-09-05T06:32:33.565Z,42.40
2022-09-05T06:35:24.651Z,41.50
2022-09-05T06:38:07.573Z,41.50
2022-09-05T06:40:37.977Z,41.00
2022-09-05T06:43:40.241Z,41.40
2022-09-05T06:46:55.479Z,41.10
2022-09-05T06:49:30.885Z,41.00
2022-09-05T06:52:40.898Z,41.00
2022-09-05T06:55:38.412Z,40.40
2022-09-05T06:58:32.600Z,39.90
2022-09-05T07:01:01.257Z,39.80
2022-09-05T07:03:52.231Z,39.50
2022-09-05T07:07:01.905Z,39.50
2022-09-05T07:09:52.088Z,39.30
2022-09-05T07:12:45.058Z,39.60
2022-09-05T07:15:12.147Z,39.30
2022-09-05T07:18:13.477Z,39.20
2022-09-05T07:21:17.370Z,38.70
2022-09-05T07:24:09.143Z,38.70
2022-09-05T07:26:53.973Z,38.30
2022-09-05T07:29:37.592Z,38.00
2022-09-05T07:32:08.692Z,37.90
2022-09-05T07:34:37.694Z,37.30
2022-09-05T07:37:15.133Z,37.10
2022-09-05T07:39:58.340Z,36.80
2022-09-05T07:42:49.954Z,36.90
2022-09-05T07:45:55.560Z,36.50
2022-09-05T07:48:34.790Z,36.90
2022-09-05T07:54:06.106Z,36.60
2022-09-05T07:56:52.882Z,36.50
2022-09-05T08:00:25.613Z,36.60
2022-09-05T08:02:55.338Z,36.40
2022-09-05T08:05:34.429Z,36.10
2022-09-05T08:08:05.500Z,36.00
2022-09-05T08:11:22.090Z,35.80
2022-09-05T08:13:42.568Z,35.50
2022-09-05T08:16:20.740Z,36.10
2022-09-05T08:19:09.876Z,36.90
2022-09-05T08:21:50.737Z,36.10
2022-09-05T08:24:29.122Z,35.40
2022-09-05T08:27:16.060Z,35.60
2022-09-05T08:30:24.856Z,35.30
2022-09-05T08:32:57.582Z,35.20
2022-09-05T08:36:01.157Z,35.50
2022-09-05T08:38:38.731Z,35.50
2022-09-05T08:41:23.641Z,35.70
2022-09-05T08:46:43.162Z,36.00
2022-09-05T08:47:12.489Z,36.50
2022-09-05T08:49:55.745Z,36.20
2022-09-05T08:52:52.663Z,35.90
2022-09-05T08:55:39.886Z,36.00
2022-09-05T08:58:33.922Z,36.00
2022-09-05T09:01:13.270Z,35.60
2022-09-05T09:03:52.498Z,35.30
2022-09-05T09:06:35.962Z,35.90
2022-09-05T09:09:21.342Z,35.60
2022-09-05T09:12:12.852Z,35.60
2022-09-05T09:14:45.956Z,35.30
2022-09-05T09:17:31.340Z,35.40
2022-09-05T09:20:06.927Z,35.30
2022-09-05T09:22:41.533Z,34.90
2022-09-05T09:25:15.073Z,35.10
2022-09-05T09:28:47.636Z,35.90
2022-09-05T09:31:26.628Z,34.90
2022-09-05T09:34:06.981Z,35.10
2022-09-05T09:37:09.725Z,35.50
2022-09-05T09:40:09.080Z,34.90
2022-09-05T09:42:50.913Z,34.30
2022-09-05T09:45:29.839Z,34.50
2022-09-05T09:48:16.473Z,34.60
2022-09-05T09:51:12.250Z,34.70
2022-09-05T09:54:05.493Z,33.90
2022-09-05T09:56:57.486Z,34.20
2022-09-05T09:59:24.289Z,34.00
2022-09-05T10:10:04.377Z,34.10
2022-09-05T10:10:37.878Z,34.10
2022-09-05T10:10:45.544Z,33.20
2022-09-05T10:14:45.088Z,33.00
2022-09-05T10:17:32.134Z,32.90
2022-09-05T10:20:15.216Z,32.90
2022-09-05T10:22:57.156Z,32.60
2022-09-05T10:25:45.723Z,32.50
2022-09-05T10:28:31.187Z,33.30
2022-09-05T10:33:11.862Z,33.40
2022-09-05T10:35:16.251Z,31.90
2022-09-05T10:37:13.141Z,32.00
2022-09-05T10:39:46.993Z,31.60
2022-09-05T10:42:58.127Z,31.10
2022-09-05T10:45:55.666Z,31.00
2022-09-05T10:48:38.783Z,30.40
2022-09-05T10:51:27.863Z,30.00
2022-09-05T10:54:32.170Z,29.80
2022-09-05T10:57:13.368Z,29.80
2022-09-05T11:02:21.956Z,29.90
2022-09-05T11:02:58.198Z,29.70
2022-09-05T11:05:36.401Z,29.10
2022-09-05T11:08:11.708Z,29.10
2022-09-05T11:11:11.268Z,28.50
2022-09-05T11:13:58.789Z,27.40
2022-09-05T11:16:44.681Z,26.80
2022-09-05T11:19:26.336Z,26.60
2022-09-05T11:22:06.496Z,26.70
2022-09-05T11:25:00.113Z,26.20
2022-09-05T11:27:40.108Z,25.20
2022-09-05T11:30:07.790Z,25.40
2022-09-05T11:39:46.222Z,24.90
2022-09-05T11:39:53.892Z,24.60
2022-09-05T11:40:25.000Z,24.30
2022-09-05T11:42:43.296Z,24.20
2022-09-05T11:46:00.917Z,23.70
2022-09-05T11:48:53.725Z,23.60
2022-09-05T11:51:44.895Z,22.90
2022-09-05T11:54:48.998Z,22.60
2022-09-05T11:57:42.955Z,22.80
2022-09-05T12:00:35.332Z,22.40
2022-09-05T12:04:01.098Z,22.30
2022-09-05T12:07:15.603Z,21.60
2022-09-05T12:10:02.573Z,20.70
2022-09-05T12:12:38.955Z,20.30
2022-09-05T12:15:27.527Z,20.00
2022-09-05T12:18:19.392Z,19.30
2022-09-05T12:21:01.118Z,19.30
2022-09-05T12:24:07.778Z,19.20
2022-09-05T12:27:42.930Z,19.30
2022-09-05T12:30:13.973Z,19.10
2022-09-05T12:36:06.336Z,17.70
2022-09-05T12:39:56.044Z,17.20
2022-09-05T12:40:55.129Z,15.90
2022-09-05T12:43:01.771Z,12.20
2022-09-05T12:45:50.411Z,7.30
2022-09-05T12:48:39.088Z,2.90
2022-09-05T12:51:18.065Z,1.00
2022-09-05T12:54:03.907Z,1.00
2022-09-05T13:00:41.120Z,1.00
2022-09-05T13:03:02.329Z,2.40
2022-09-05T13:03:28.383Z,3.40
2022-09-05T13:06:17.106Z,1.00
2022-09-05T13:08:59.679Z,1.00
2022-09-05T13:14:49.744Z,1.00
2022-09-05T13:14:59.082Z,1.00
2022-09-05T13:17:15.600Z,1.00
2022-09-05T13:19:51.439Z,1.00
2022-09-05T13:22:23.341Z,1.00
2022-09-05T13:25:16.630Z,1.00
2022-09-05T13:27:56.667Z,1.00
2022-09-05T13:35:30.052Z,1.00
2022-09-05T13:38:15.621Z,1.00
2022-09-05T13:38:30.739Z,1.00
2022-09-05T13:39:13.145Z,1.00
2022-09-05T13:41:59.676Z,1.00
2022-09-05T13:44:33.635Z,1.00
2022-09-05T13:47:29.546Z,1.00
2022-09-05T13:50:13.557Z,1.00
2022-09-05T13:52:53.041Z,1.00
2022-09-05T13:55:27.413Z,1.00
2022-09-05T13:57:56.567Z,1.00
2022-09-05T14:00:38.068Z,1.00
2022-09-05T14:06:45.728Z,1.00
2022-09-05T14:09:41.613Z,1.00
2022-09-05T14:12:29.507Z,1.00
2022-09-05T14:15:13.731Z,1.00
2022-09-05T14:18:19.993Z,1.00
2022-09-05T14:21:26.939Z,1.00
2022-09-05T14:23:56.625Z,1.00
2022-09-05T14:26:46.045Z,1.00
2022-09-05T14:29:55.244Z,1.00
2022-09-05T14:37:41.385Z,1.00
2022-09-05T14:37:42.125Z,1.00
2022-09-05T14:38:39.461Z,1.00
2022-09-05T14:41:28.285Z,1.00
2022-09-05T14:44:01.295Z,1.00
2022-09-05T14:46:39.818Z,1.00
2022-09-05T14:49:25.703Z,1.00
2022-09-05T14:51:58.481Z,1.40
2022-09-05T15:02:58.504Z,3.00
2022-09-05T15:02:58.669Z,4.00
2022-09-05T15:03:12.491Z,4.90
2022-09-05T15:05:50.082Z,7.00
2022-09-05T15:10:09.136Z,8.60
2022-09-05T15:12:16.217Z,8.50
2022-09-05T15:14:06.633Z,9.00
2022-09-05T15:16:43.585Z,9.10
2022-09-05T15:19:11.237Z,10.20
2022-09-05T15:21:42.815Z,11.00
2022-09-05T15:24:32.413Z,13.30
2022-09-05T15:27:01.779Z,14.40
2022-09-05T15:29:35.607Z,14.50
2022-09-05T15:32:38.103Z,14.00
2022-09-05T15:35:06.189Z,13.60
2022-09-05T15:37:36.898Z,14.90
2022-09-05T15:40:23.090Z,16.20
2022-09-05T15:43:02.424Z,17.10
2022-09-05T15:45:35.456Z,18.20
2022-09-05T15:48:16.109Z,18.60
2022-09-05T15:51:02.582Z,19.60
2022-09-05T15:53:36.485Z,20.10
2022-09-05T15:56:12.476Z,20.80
2022-09-05T15:58:53.406Z,21.30
2022-09-05T16:01:58.632Z,21.20
2022-09-05T16:10:26.858Z,21.00
2022-09-05T16:10:34.369Z,21.10
2022-09-05T16:10:48.476Z,20.60
2022-09-05T16:13:02.445Z,20.10
2022-09-05T16:22:13.989Z,20.10
2022-09-05T16:23:20.280Z,20.30
2022-09-05T16:23:24.775Z,20.20
2022-09-05T16:24:38.599Z,19.80
2022-09-05T16:27:18.438Z,20.00
2022-09-05T16:29:47.986Z,20.50
2022-09-05T16:32:18.369Z,20.90
2022-09-05T16:34:54.821Z,21.00
2022-09-05T16:37:38.878Z,21.20
2022-09-05T16:40:15.359Z,22.00
2022-09-05T16:42:54.436Z,22.00
2022-09-05T16:45:27.267Z,22.60
2022-09-05T16:48:18.518Z,22.80
2022-09-05T16:51:13.349Z,23.00
2022-09-05T16:54:30.845Z,23.60
2022-09-05T16:56:58.683Z,23.90
2022-09-05T16:59:29.813Z,24.30
2022-09-05T17:02:14.786Z,24.60
2022-09-05T17:05:06.336Z,25.00
2022-09-05T17:07:50.740Z,25.50
2022-09-05T17:10:25.612Z,25.40
2022-09-05T17:12:56.181Z,25.40
2022-09-05T17:15:39.267Z,25.80
2022-09-05T17:18:25.267Z,25.70
2022-09-05T17:20:59.357Z,26.00
2022-09-05T17:27:42.824Z,25.80
2022-09-05T17:29:36.535Z,26.20
2022-09-05T17:32:38.911Z,26.50
2022-09-05T17:35:30.162Z,26.60
2022-09-05T17:38:17.422Z,26.80
2022-09-05T17:41:01.731Z,27.70
2022-09-05T17:43:38.589Z,27.30
2022-09-05T17:46:26.080Z,27.80
2022-09-05T17:49:14.758Z,28.40
2022-09-05T17:51:50.863Z,28.50
2022-09-05T17:54:29.780Z,28.50
2022-09-05T17:57:16.699Z,28.40
2022-09-05T17:59:43.565Z,28.50
2022-09-05T18:02:31.130Z,29.20
2022-09-05T18:04:58.435Z,29.90
2022-09-05T18:07:25.528Z,30.00
2022-09-05T18:15:38.352Z,30.40
2022-09-05T18:18:18.446Z,30.50
2022-09-05T18:21:14.658Z,30.50
2022-09-05T18:23:54.272Z,30.70
2022-09-05T18:26:25.338Z,31.00
2022-09-05T18:29:05.819Z,30.70
2022-09-05T18:31:41.204Z,30.60
2022-09-05T18:34:21.254Z,30.60
2022-09-05T18:36:56.063Z,31.10
2022-09-05T18:39:26.064Z,30.70
2022-09-05T18:42:14.790Z,30.80
2022-09-05T18:44:59.504Z,31.10
2022-09-05T18:47:33.013Z,31.00
2022-09-05T18:50:26.116Z,31.10
2022-09-05T18:53:08.836Z,30.90
2022-09-05T18:56:11.024Z,31.20
2022-09-05T18:58:52.063Z,32.10
2022-09-05T19:01:52.851Z,32.30
2022-09-05T19:04:46.349Z,32.30
2022-09-05T19:07:22.381Z,32.10
2022-09-05T19:10:34.301Z,32.10
2022-09-05T19:13:17.247Z,32.20
2022-09-05T19:16:21.070Z,32.10
2022-09-05T19:19:24.413Z,32.10
2022-09-05T19:22:31.983Z,32.20
2022-09-05T19:24:44.859Z,32.10
2022-09-05T19:29:15.619Z,32.10
2022-09-05T19:36:57.981Z,32.00
2022-09-05T19:37:02.460Z,32.00
2022-09-05T19:37:06.389Z,32.10
2022-09-05T19:38:34.185Z,31.80
2022-09-05T19:47:26.477Z,31.80
2022-09-05T19:47:33.998Z,31.80
2022-09-05T19:47:35.920Z,31.90
2022-09-05T19:50:05.626Z,32.40
2022-09-05T19:52:33.690Z,32.40
2022-09-05T19:55:23.555Z,31.70
2022-09-05T19:58:18.537Z,31.70
2022-09-05T20:00:45.956Z,31.70
2022-09-05T20:03:28.073Z,31.70
2022-09-05T20:05:59.070Z,31.60
2022-09-05T20:08:35.484Z,31.70
2022-09-05T20:11:07.531Z,31.60
2022-09-05T20:13:34.403Z,31.50
2022-09-05T20:16:01.983Z,31.40
2022-09-05T20:18:44.997Z,31.70
2022-09-05T20:21:22.150Z,31.90
2022-09-05T20:23:54.026Z,31.90
2022-09-05T20:26:28.149Z,31.60
2022-09-05T20:29:04.980Z,31.40
2022-09-05T20:31:36.775Z,31.40
2022-09-05T20:34:22.617Z,31.40
2022-09-05T20:43:10.656Z,31.40
2022-09-05T20:43:21.188Z,31.30
2022-09-05T20:43:24.179Z,31.30
2022-09-05T20:46:24.264Z,31.20
2022-09-05T20:54:16.036Z,31.20
2022-09-05T20:54:24.888Z,31.30
2022-09-05T20:54:39.393Z,31.10
2022-09-05T20:57:17.528Z,31.10
2022-09-05T20:59:47.146Z,31.10
2022-09-05T21:02:27.418Z,31.10
2022-09-05T21:05:06.864Z,30.50
2022-09-05T21:08:01.139Z,30.60
2022-09-05T21:10:55.963Z,30.00
2022-09-05T21:13:27.318Z,30.70
2022-09-05T21:15:55.758Z,29.80
2022-09-05T21:18:33.018Z,29.70
2022-09-05T21:21:08.952Z,29.40
2022-09-05T21:24:16.324Z,29.30
2022-09-05T21:26:49.777Z,29.20
2022-09-05T21:29:32.222Z,29.00
2022-09-05T21:32:10.587Z,28.80
2022-09-05T21:34:48.962Z,28.90
2022-09-05T21:37:17.125Z,28.60
2022-09-05T21:39:59.935Z,28.30
2022-09-05T21:47:01.500Z,28.80
2022-09-05T21:47:48.364Z,28.30
2022-09-05T21:48:15.085Z,28.20
2022-09-05T21:50:52.097Z,27.60
2022-09-05T21:59:16.681Z,27.30
2022-09-05T21:59:21.371Z,27.50
2022-09-05T21:59:46.657Z,27.30
2022-09-05T22:02:16.877Z,27.20
2022-09-05T22:04:44.089Z,27.00
2022-09-05T22:07:31.932Z,27.00
2022-09-05T22:09:59.618Z,26.90
2022-09-05T22:12:31.314Z,27.00
2022-09-05T22:15:26.741Z,27.20
2022-09-05T22:17:53.630Z,26.50
2022-09-05T22:20:23.342Z,26.50
2022-09-05T22:22:56.824Z,26.80
2022-09-05T22:25:32.076Z,26.10
2022-09-05T22:28:12.810Z,26.10
2022-09-05T22:30:42.379Z,26.10
2022-09-05T22:33:14.172Z,25.70
2022-09-05T22:35:41.672Z,25.40
2022-09-05T22:38:16.402Z,25.80
2022-09-05T22:40:46.408Z,25.40
2022-09-05T22:43:15.007Z,25.50
2022-09-05T22:45:42.050Z,25.60
2022-09-05T22:48:11.049Z,25.30
2022-09-05T22:50:38.253Z,25.30
2022-09-05T22:53:09.712Z,25.30
2022-09-05T22:55:38.700Z,25.80
2022-09-05T22:58:09.818Z,25.40
2022-09-05T23:00:37.195Z,25.30
2022-09-05T23:03:06.188Z,25.20
2022-09-05T23:05:33.629Z,25.30
2022-09-05T23:08:04.098Z,25.30
2022-09-05T23:10:34.315Z,25.30
2022-09-05T23:13:04.648Z,25.30
2022-09-05T23:15:31.452Z,25.00
2022-09-05T23:17:59.663Z,24.80
2022-09-05T23:20:29.317Z,24.80
2022-09-05T23:22:56.810Z,24.70
2022-09-05T23:25:27.116Z,24.70
2022-09-05T23:27:56.122Z,24.60
2022-09-05T23:30:22.970Z,24.90
2022-09-05T23:32:51.357Z,24.70
2022-09-05T23:35:21.354Z,24.70
2022-09-05T23:37:50.771Z,24.80
2022-09-05T23:40:23.499Z,24.80
2022-09-05T23:42:57.670Z,25.00
2022-09-05T23:45:25.910Z,25.10
2022-09-05T23:47:56.483Z,25.10
2022-09-05T23:50:23.641Z,25.20
2022-09-05T23:52:50.769Z,25.10
2022-09-05T23:55:19.656Z,25.30
2022-09-05T23:57:49.091Z,25.50
